createdAt,value
2018-02-03T00:02:16.003Z,77.70
2018-02-03T00:04:44.284Z,76.28
2018-02-03T00:07:12.556Z,75.98
2018-02-03T00:09:40.833Z,77.54
2018-02-03T00:12:09.125Z,76.30
2018-02-03T00:14:37.413Z,78.72
2018-02-03T00:17:05.690Z,77.66
2018-02-03T00:19:34.723Z,77.30
2018-02-03T00:22:03.006Z,79.45
2018-02-03T00:24:31.289Z,81.25
2018-02-03T00:26:59.561Z,80.73
2018-02-03T00:29:28.620Z,79.58
2018-02-03T00:31:56.896Z,78.54
2018-02-03T00:34:25.180Z,78.70
2018-02-03T00:36:53.453Z,79.25
2018-02-03T00:39:21.735Z,78.80
2018-02-03T00:41:50.004Z,79.20
2018-02-03T00:44:20.271Z,81.02
2018-02-03T00:46:48.761Z,79.06
2018-02-03T00:49:17.049Z,79.28
2018-02-03T00:51:45.321Z,79.02
2018-02-03T00:54:14.368Z,79.29
2018-02-03T00:56:42.640Z,79.75
2018-02-03T00:59:10.922Z,79.16
2018-02-03T01:01:39.185Z,77.92
2018-02-03T01:04:08.225Z,79.34
2018-02-03T01:06:36.497Z,78.75
2018-02-03T01:09:04.796Z,79.63
2018-02-03T01:11:33.063Z,81.00
2018-02-03T01:14:02.108Z,82.59
2018-02-03T01:16:30.372Z,81.82
2018-02-03T01:18:58.658Z,79.45
2018-02-03T01:21:26.933Z,79.67
2018-02-03T01:23:55.985Z,78.61
2018-02-03T01:26:24.267Z,78.90
2018-02-03T01:28:52.539Z,78.90
2018-02-03T01:31:20.825Z,79.59
2018-02-03T01:33:49.111Z,78.89
2018-02-03T01:36:19.339Z,77.55
2018-02-03T01:38:47.620Z,77.54
2018-02-03T01:41:16.666Z,79.24
2018-02-03T01:43:45.854Z,79.03
2018-02-03T01:46:14.165Z,78.07
2018-02-03T01:48:47.455Z,77.59
2018-02-03T01:51:15.736Z,76.97
2018-02-03T01:53:44.018Z,77.05
2018-02-03T01:56:16.711Z,77.49
2018-02-03T01:58:46.957Z,77.48
2018-02-03T02:01:15.245Z,77.97
2018-02-03T02:03:43.519Z,76.93
2018-02-03T02:06:16.533Z,76.45
2018-02-03T02:08:44.803Z,75.67
2018-02-03T02:11:13.096Z,75.76
2018-02-03T02:13:41.376Z,76.30
2018-02-03T02:16:14.000Z,75.78
2018-02-03T02:18:42.272Z,76.53
2018-02-03T02:21:10.551Z,75.69
2018-02-03T02:23:38.834Z,75.04
2018-02-03T02:26:07.890Z,74.95
2018-02-03T02:28:36.173Z,74.65
2018-02-03T02:31:04.461Z,76.22
2018-02-03T02:33:32.739Z,75.29
2018-02-03T02:36:01.066Z,75.03
2018-02-03T02:38:29.332Z,76.34
2018-02-03T02:40:57.624Z,75.95
2018-02-03T02:43:25.905Z,74.88
2018-02-03T02:45:55.145Z,75.65
2018-02-03T02:48:23.388Z,74.37
2018-02-03T02:50:51.682Z,74.26
2018-02-03T02:53:19.970Z,73.73
2018-02-03T02:55:48.244Z,74.21
2018-02-03T02:58:16.529Z,73.68
2018-02-03T03:00:44.820Z,74.34
2018-02-03T03:03:13.113Z,74.62
2018-02-03T03:05:41.396Z,74.02
2018-02-03T03:08:09.677Z,73.71
2018-02-03T03:10:37.954Z,73.98
2018-02-03T03:13:06.997Z,75.85
2018-02-03T03:15:35.280Z,75.26
2018-02-03T03:18:04.481Z,73.56
2018-02-03T03:20:32.767Z,72.51
2018-02-03T03:23:01.048Z,74.41
2018-02-03T03:25:29.321Z,72.96
2018-02-03T03:27:58.351Z,73.66
2018-02-03T03:30:27.217Z,73.53
2018-02-03T03:32:55.489Z,73.11
2018-02-03T03:35:23.784Z,73.72
2018-02-03T03:38:15.516Z,75.04
2018-02-03T03:40:43.820Z,76.74
2018-02-03T03:43:16.877Z,77.32
2018-02-03T03:45:47.117Z,77.25
2018-02-03T03:48:17.349Z,76.45
2018-02-03T03:50:45.657Z,75.11
2018-02-03T03:53:13.933Z,74.18
2018-02-03T03:55:42.238Z,73.38
2018-02-03T03:58:10.515Z,73.17
2018-02-03T04:00:38.803Z,73.17
2018-02-03T04:03:07.073Z,74.20
2018-02-03T04:05:46.600Z,74.94
2018-02-03T04:08:15.632Z,76.23
2018-02-03T04:10:43.921Z,78.49
2018-02-03T04:13:12.191Z,78.72
2018-02-03T04:15:50.611Z,76.84
2018-02-03T04:18:19.649Z,75.51
2018-02-03T04:20:48.688Z,78.03
2018-02-03T04:23:16.971Z,81.88
2018-02-03T04:25:45.247Z,80.30
2018-02-03T04:28:13.540Z,78.07
2018-02-03T04:30:41.823Z,76.56
2018-02-03T04:33:10.093Z,77.23
2018-02-03T04:35:38.356Z,77.38
2018-02-03T04:38:06.629Z,76.49
2018-02-03T04:40:35.677Z,76.61
2018-02-03T04:43:03.956Z,75.66
2018-02-03T04:45:36.048Z,74.57
2018-02-03T04:48:04.311Z,74.33
2018-02-03T04:50:32.592Z,74.60
2018-02-03T04:53:00.909Z,74.21
2018-02-03T04:55:29.186Z,73.79
2018-02-03T04:57:57.469Z,73.01
2018-02-03T05:00:25.744Z,73.38
2018-02-03T05:02:54.779Z,73.11
2018-02-03T05:05:23.062Z,73.19
2018-02-03T05:10:51.333Z,74.22
2018-02-03T05:13:19.590Z,74.40
2018-02-03T05:15:47.880Z,73.46
2018-02-03T05:18:16.152Z,72.30
2018-02-03T05:20:44.968Z,72.22
2018-02-03T05:23:13.241Z,73.73
2018-02-03T05:25:48.124Z,74.56
2018-02-03T05:28:16.569Z,74.34
2018-02-03T05:30:45.785Z,74.78
2018-02-03T05:33:14.068Z,73.94
2018-02-03T05:35:43.281Z,72.98
2018-02-03T05:38:11.579Z,72.46
2018-02-03T05:40:39.852Z,72.64
2018-02-03T05:43:08.153Z,71.85
2018-02-03T05:45:36.428Z,71.52
2018-02-03T05:48:05.657Z,71.95
2018-02-03T05:50:46.452Z,72.35
2018-02-03T05:53:14.763Z,71.20
2018-02-03T05:55:43.031Z,71.25
2018-02-03T05:58:11.311Z,70.73
2018-02-03T06:00:39.600Z,70.60
2018-02-03T06:03:07.894Z,70.31
2018-02-03T06:05:36.162Z,70.37
2018-02-03T06:08:04.452Z,69.83
2018-02-03T06:10:32.741Z,69.72
2018-02-03T06:13:01.027Z,69.88
2018-02-03T06:15:29.287Z,69.31
2018-02-03T06:17:57.571Z,70.01
2018-02-03T06:20:26.625Z,69.59
2018-02-03T06:22:56.868Z,69.54
2018-02-03T06:25:36.368Z,69.78
2018-02-03T06:28:05.429Z,70.78
2018-02-03T06:30:33.719Z,70.05
2018-02-03T06:33:02.017Z,71.12
2018-02-03T06:35:30.290Z,70.15
2018-02-03T06:37:58.581Z,70.95
2018-02-03T06:40:26.885Z,71.08
2018-02-03T06:42:55.180Z,70.32
2018-02-03T06:45:23.452Z,70.97
2018-02-03T06:47:51.750Z,71.54
2018-02-03T06:50:20.025Z,72.87
2018-02-03T06:52:48.321Z,74.27
2018-02-03T06:55:21.695Z,74.45
2018-02-03T06:57:50.029Z,74.18
2018-02-03T07:00:18.301Z,72.79
2018-02-03T07:02:46.592Z,72.48
2018-02-03T07:05:14.876Z,71.94
2018-02-03T07:07:43.157Z,71.21
2018-02-03T07:10:11.436Z,72.61
2018-02-03T07:12:39.718Z,73.33
2018-02-03T07:15:08.005Z,73.27
2018-02-03T07:18:07.756Z,73.58
2018-02-03T07:20:36.049Z,72.82
2018-02-03T07:23:04.315Z,72.17
2018-02-03T07:25:32.600Z,71.13
2018-02-03T07:28:00.898Z,71.14
2018-02-03T07:30:29.197Z,71.02
2018-02-03T07:32:57.473Z,70.66
2018-02-03T07:35:25.760Z,71.71
2018-02-03T07:37:54.031Z,74.71
2018-02-03T07:40:23.102Z,75.49
2018-02-03T07:42:51.377Z,76.43
2018-02-03T07:45:19.657Z,77.21
2018-02-03T07:47:47.927Z,75.86
2018-02-03T07:50:16.225Z,76.58
2018-02-03T07:52:46.640Z,75.60
2018-02-03T07:55:14.930Z,74.16
2018-02-03T07:57:43.207Z,73.98
2018-02-03T08:00:12.252Z,73.34
2018-02-03T08:02:40.525Z,72.38
2018-02-03T08:05:12.392Z,71.34
2018-02-03T08:07:40.666Z,70.49
2018-02-03T08:10:08.951Z,70.47
2018-02-03T08:12:40.735Z,71.85
2018-02-03T08:15:29.676Z,71.64
2018-02-03T08:17:57.935Z,71.54
2018-02-03T08:20:26.461Z,70.47
2018-02-03T08:22:54.740Z,71.01
2018-02-03T08:25:23.047Z,70.74
2018-02-03T08:27:52.123Z,71.26
2018-02-03T08:30:20.483Z,71.18
2018-02-03T08:32:48.777Z,70.10
2018-02-03T08:35:17.064Z,69.35
2018-02-03T08:37:47.398Z,69.82
2018-02-03T08:40:15.600Z,69.39
2018-02-03T08:42:43.887Z,68.40
2018-02-03T08:45:12.158Z,68.04
2018-02-03T08:47:40.478Z,68.57
2018-02-03T08:50:08.747Z,68.34
2018-02-03T08:52:37.037Z,68.61
2018-02-03T08:55:05.316Z,68.67
2018-02-03T08:57:33.601Z,69.49
2018-02-03T09:00:01.915Z,68.14
2018-02-03T09:02:30.195Z,68.08
2018-02-03T09:04:58.468Z,69.06
2018-02-03T09:07:31.352Z,68.82
2018-02-03T09:10:01.585Z,68.98
2018-02-03T09:12:29.864Z,69.46
2018-02-03T09:14:58.139Z,68.29
2018-02-03T09:17:27.424Z,68.21
2018-02-03T09:19:56.925Z,67.93
2018-02-03T09:22:25.542Z,67.13
2018-02-03T09:24:54.603Z,66.73
2018-02-03T09:27:22.888Z,64.95
2018-02-03T09:29:53.129Z,65.34
2018-02-03T09:32:21.398Z,63.97
2018-02-03T09:34:49.672Z,65.44
2018-02-03T09:37:18.721Z,64.92
2018-02-03T09:39:47.008Z,64.94
2018-02-03T09:42:15.284Z,65.47
2018-02-03T09:44:43.553Z,64.65
2018-02-03T09:47:16.573Z,65.82
2018-02-03T09:49:44.849Z,65.62
2018-02-03T09:52:17.043Z,66.02
2018-02-03T09:54:45.331Z,65.58
2018-02-03T09:57:31.875Z,66.65
2018-02-03T10:00:01.061Z,66.91
2018-02-03T10:02:29.336Z,67.15
2018-02-03T10:04:57.669Z,67.81
2018-02-03T10:07:25.912Z,68.81
2018-02-03T10:09:55.143Z,68.08
2018-02-03T10:12:25.381Z,67.93
2018-02-03T10:14:53.669Z,68.84
2018-02-03T10:17:21.958Z,69.44
2018-02-03T10:19:50.231Z,68.15
2018-02-03T10:22:19.464Z,67.58
2018-02-03T10:24:47.738Z,66.79
2018-02-03T10:27:16.013Z,66.05
2018-02-03T10:29:44.286Z,66.24
2018-02-03T10:32:13.337Z,66.03
2018-02-03T10:34:41.605Z,65.94
2018-02-03T10:37:09.885Z,64.57
2018-02-03T10:39:38.726Z,62.91
2018-02-03T10:42:07.018Z,64.40
2018-02-03T10:44:35.290Z,63.88
2018-02-03T10:47:03.569Z,63.94
2018-02-03T10:49:31.836Z,63.10
2018-02-03T10:52:00.872Z,62.44
2018-02-03T10:54:30.051Z,61.44
2018-02-03T10:56:59.095Z,61.81
2018-02-03T10:59:27.360Z,61.45
2018-02-03T11:01:55.629Z,62.40
2018-02-03T11:04:24.656Z,62.64
2018-02-03T11:07:02.748Z,62.31
2018-02-03T11:09:31.772Z,61.84
2018-02-03T11:12:00.044Z,61.73
2018-02-03T11:14:29.123Z,62.00
2018-02-03T11:16:57.402Z,61.99
2018-02-03T11:19:25.670Z,61.34
2018-02-03T11:21:53.943Z,61.84
2018-02-03T11:24:22.216Z,61.62
2018-02-03T11:26:52.192Z,60.53
2018-02-03T11:29:20.467Z,61.33
2018-02-03T11:31:48.748Z,63.17
2018-02-03T11:34:17.021Z,63.37
2018-02-03T11:36:47.258Z,62.51
2018-02-03T11:39:16.571Z,61.29
2018-02-03T11:41:44.857Z,60.32
2018-02-03T11:44:13.151Z,60.45
2018-02-03T11:46:41.420Z,59.52
2018-02-03T11:49:10.451Z,60.25
2018-02-03T11:51:38.711Z,60.83
2018-02-03T11:54:07.753Z,59.66
2018-02-03T11:56:36.016Z,59.91
2018-02-03T11:59:04.287Z,61.28
2018-02-03T12:01:33.318Z,61.00
2018-02-03T12:04:01.596Z,61.23
2018-02-03T12:06:29.860Z,60.94
2018-02-03T12:08:58.348Z,62.07
2018-02-03T12:11:27.600Z,61.44
2018-02-03T12:13:56.808Z,60.24
2018-02-03T12:16:29.715Z,61.77
2018-02-03T12:18:57.981Z,63.34
2018-02-03T12:21:27.015Z,65.15
2018-02-03T12:23:55.294Z,66.00
2018-02-03T12:26:27.864Z,65.28
2018-02-03T12:28:56.893Z,64.60
2018-02-03T12:31:41.768Z,63.11
2018-02-03T12:34:11.243Z,62.75
2018-02-03T12:36:39.531Z,62.38
2018-02-03T12:39:07.824Z,62.46
2018-02-03T12:41:36.092Z,62.69
2018-02-03T12:44:04.356Z,63.07
2018-02-03T12:46:32.630Z,63.04
2018-02-03T12:49:04.493Z,63.33
2018-02-03T12:51:40.207Z,63.17
2018-02-03T12:54:14.871Z,62.13
2018-02-03T12:56:43.894Z,61.91
2018-02-03T12:59:12.152Z,61.98
2018-02-03T13:01:40.444Z,61.95
2018-02-03T13:04:08.713Z,61.64
2018-02-03T13:06:37.057Z,61.51
2018-02-03T13:09:05.342Z,61.61
2018-02-03T13:11:34.345Z,62.85
2018-02-03T13:14:02.604Z,63.47
2018-02-03T13:16:30.859Z,63.92
2018-02-03T13:18:59.149Z,63.85
2018-02-03T13:21:41.037Z,63.87
2018-02-03T13:24:22.656Z,66.34
2018-02-03T13:26:50.939Z,66.71
2018-02-03T13:29:19.210Z,67.78
2018-02-03T13:31:47.488Z,66.90
2018-02-03T13:34:15.759Z,67.64
2018-02-03T13:36:44.787Z,67.52
2018-02-03T13:39:13.075Z,66.98
2018-02-03T13:41:41.352Z,67.21
2018-02-03T13:44:09.668Z,68.43
2018-02-03T13:49:48.713Z,69.33
2018-02-03T13:52:17.744Z,70.27
2018-02-03T13:54:46.022Z,69.23
2018-02-03T13:57:14.296Z,68.19
2018-02-03T14:00:02.115Z,68.51
2018-02-03T14:02:30.367Z,68.90
2018-02-03T14:04:58.654Z,68.71
2018-02-03T14:07:26.926Z,68.45
2018-02-03T14:09:55.214Z,68.11
2018-02-03T14:12:23.467Z,68.55
2018-02-03T14:14:54.443Z,69.00
2018-02-03T14:17:24.676Z,69.11
2018-02-03T14:19:53.720Z,69.18
2018-02-03T14:22:21.986Z,68.90
2018-02-03T14:24:52.035Z,68.64
2018-02-03T14:27:22.239Z,69.61
2018-02-03T14:29:50.508Z,69.03
2018-02-03T14:32:20.452Z,68.86
2018-02-03T14:34:48.735Z,69.13
2018-02-03T14:37:29.134Z,68.33
2018-02-03T14:40:01.074Z,68.78
2018-02-03T14:42:30.103Z,69.48
2018-02-03T14:45:04.498Z,68.81
2018-02-03T14:47:50.054Z,67.84
2018-02-03T14:50:21.379Z,67.45
2018-02-03T14:52:50.431Z,67.40
2018-02-03T14:55:21.974Z,67.69
2018-02-03T14:57:55.875Z,66.82
2018-02-03T15:00:27.491Z,67.11
2018-02-03T15:02:55.757Z,67.28
2018-02-03T15:05:46.002Z,67.34
2018-02-03T15:08:31.140Z,67.91
2018-02-03T15:10:59.413Z,68.17
2018-02-03T15:13:27.689Z,67.90
2018-02-03T15:15:56.709Z,67.80
2018-02-03T15:21:26.066Z,68.79
2018-02-03T15:23:54.345Z,68.36
2018-02-03T15:26:22.610Z,68.10
2018-02-03T15:29:14.922Z,67.62
2018-02-03T15:31:43.216Z,68.61
2018-02-03T15:34:11.505Z,68.83
2018-02-03T15:36:39.777Z,69.35
2018-02-03T15:39:14.477Z,71.76
2018-02-03T15:44:47.325Z,73.73
2018-02-03T15:47:15.595Z,72.82
2018-02-03T15:49:44.764Z,72.46
2018-02-03T15:52:13.024Z,72.41
2018-02-03T15:54:41.315Z,72.24
2018-02-03T15:57:09.597Z,73.46
2018-02-03T15:59:37.875Z,73.86
2018-02-03T16:02:06.135Z,73.57
2018-02-03T16:04:35.179Z,73.52
2018-02-03T16:07:03.448Z,73.18
2018-02-03T16:09:31.776Z,73.50
2018-02-03T16:12:00.762Z,73.43
2018-02-03T16:14:29.255Z,72.84
2018-02-03T16:16:57.522Z,73.20
2018-02-03T16:19:25.979Z,74.22
2018-02-03T16:21:54.287Z,74.38
2018-02-03T16:24:23.336Z,74.67
2018-02-03T16:26:51.621Z,74.23
2018-02-03T16:29:19.909Z,73.51
2018-02-03T16:31:48.190Z,73.57
2018-02-03T16:34:16.469Z,73.70
2018-02-03T16:36:44.742Z,75.75
2018-02-03T16:39:13.785Z,75.31
2018-02-03T16:41:42.081Z,74.82
2018-02-03T16:44:10.365Z,74.08
2018-02-03T16:46:42.276Z,73.59
2018-02-03T16:49:10.535Z,72.82
2018-02-03T16:51:38.807Z,73.83
2018-02-03T16:54:07.080Z,73.97
2018-02-03T16:56:42.270Z,73.15
2018-02-03T16:59:10.546Z,73.30
2018-02-03T17:01:38.820Z,72.91
2018-02-03T17:04:07.112Z,72.60
2018-02-03T17:06:35.379Z,71.74
2018-02-03T17:09:03.659Z,71.87
2018-02-03T17:11:32.695Z,71.74
2018-02-03T17:14:00.987Z,71.17
2018-02-03T17:16:29.260Z,71.39
2018-02-03T17:18:57.564Z,71.56
2018-02-03T17:21:25.832Z,72.58
2018-02-03T17:23:54.116Z,72.33
2018-02-03T17:26:23.165Z,72.73
2018-02-03T17:28:51.440Z,73.17
2018-02-03T17:31:20.614Z,73.31
2018-02-03T17:33:49.647Z,73.30
2018-02-03T17:36:23.423Z,73.48
2018-02-03T17:39:06.583Z,74.01
2018-02-03T17:41:40.011Z,73.45
2018-02-03T17:44:09.226Z,73.14
2018-02-03T17:46:42.968Z,72.73
2018-02-03T17:49:11.247Z,72.75
2018-02-03T17:54:40.672Z,72.91
2018-02-03T17:57:14.375Z,72.17
2018-02-03T17:59:48.896Z,72.10
2018-02-03T18:02:17.936Z,71.83
2018-02-03T18:04:47.033Z,71.58
2018-02-03T18:07:15.317Z,71.83
2018-02-03T18:10:00.639Z,71.64
2018-02-03T18:12:42.326Z,72.82
2018-02-03T18:15:10.616Z,74.37
2018-02-03T18:17:38.885Z,75.21
2018-02-03T18:20:07.927Z,74.76
2018-02-03T18:22:36.202Z,75.40
2018-02-03T18:25:04.475Z,75.45
2018-02-03T18:27:32.758Z,75.33
2018-02-03T18:30:01.796Z,74.54
2018-02-03T18:32:30.058Z,74.56
2018-02-03T18:34:58.330Z,75.19
2018-02-03T18:37:27.373Z,74.24
2018-02-03T18:39:56.647Z,74.03
2018-02-03T18:42:24.920Z,73.89
2018-02-03T18:44:53.198Z,73.77
2018-02-03T18:47:21.485Z,73.41
2018-02-03T18:49:49.765Z,73.05
2018-02-03T18:52:18.053Z,73.02
2018-02-03T18:54:46.337Z,72.26
2018-02-03T18:57:14.607Z,71.84
2018-02-03T18:59:44.841Z,71.57
2018-02-03T19:02:13.107Z,71.51
2018-02-03T19:04:41.386Z,71.58
2018-02-03T19:07:10.432Z,71.72
2018-02-03T19:09:38.725Z,71.54
2018-02-03T19:12:07.013Z,72.94
2018-02-03T19:14:35.306Z,73.66
2018-02-03T19:17:03.576Z,75.18
2018-02-03T19:19:31.918Z,74.11
2018-02-03T19:22:00.193Z,75.64
2018-02-03T19:24:28.463Z,74.91
2018-02-03T19:26:56.738Z,74.65
2018-02-03T19:29:25.007Z,75.75
2018-02-03T19:31:53.293Z,76.24
2018-02-03T19:34:21.563Z,75.74
2018-02-03T19:36:50.735Z,75.09
2018-02-03T19:39:19.000Z,74.82
2018-02-03T19:41:48.199Z,74.62
2018-02-03T19:44:16.468Z,74.04
2018-02-03T19:46:44.741Z,72.98
2018-02-03T19:49:13.777Z,72.88
2018-02-03T19:51:42.051Z,73.18
2018-02-03T19:54:10.346Z,73.02
2018-02-03T19:56:38.651Z,72.63
2018-02-03T19:59:06.907Z,72.52
2018-02-03T20:01:56.476Z,71.96
2018-02-03T20:04:24.744Z,72.27
2018-02-03T20:07:18.024Z,73.12
2018-02-03T20:12:47.644Z,73.19
2018-02-03T20:15:34.710Z,72.80
2018-02-03T20:18:28.691Z,73.29
2018-02-03T20:20:56.964Z,73.57
2018-02-03T20:23:25.236Z,73.57
2018-02-03T20:25:53.533Z,73.28
2018-02-03T20:31:23.183Z,73.36
2018-02-03T20:33:51.464Z,74.04
2018-02-03T20:36:27.347Z,72.84
2018-02-03T20:38:59.448Z,72.36
2018-02-03T20:41:27.737Z,72.64
2018-02-03T20:43:56.005Z,72.47
2018-02-03T20:46:41.121Z,71.87
2018-02-03T20:49:09.396Z,71.59
2018-02-03T20:51:44.080Z,71.63
2018-02-03T20:54:13.125Z,71.60
2018-02-03T20:56:41.407Z,72.05
2018-02-03T20:59:09.684Z,71.68
2018-02-03T21:01:37.968Z,71.01
2018-02-03T21:04:06.255Z,71.34
2018-02-03T21:06:34.535Z,71.36
2018-02-03T21:09:03.577Z,71.10
2018-02-03T21:11:31.861Z,70.46
2018-02-03T21:14:00.179Z,69.82
2018-02-03T21:16:28.452Z,68.92
2018-02-03T21:21:58.287Z,71.08
2018-02-03T21:24:33.508Z,70.31
2018-02-03T21:30:03.207Z,72.39
2018-02-03T21:32:44.215Z,74.01
2018-02-03T21:35:12.484Z,74.52
2018-02-03T21:37:40.748Z,74.56
2018-02-03T21:40:10.709Z,74.96
2018-02-03T21:42:38.981Z,76.04
2018-02-03T21:45:07.243Z,76.25
2018-02-03T21:47:48.119Z,76.68
2018-02-03T21:50:16.387Z,77.10
2018-02-03T21:52:44.639Z,75.85
2018-02-03T21:58:14.581Z,75.91
2018-02-03T22:01:13.720Z,75.98
2018-02-03T22:03:41.976Z,76.73
2018-02-03T22:06:11.008Z,77.34
2018-02-03T22:08:39.281Z,76.96
2018-02-03T22:11:07.565Z,75.72
2018-02-03T22:13:36.601Z,76.54
2018-02-03T22:19:26.447Z,75.57
2018-02-03T22:21:55.715Z,75.92
2018-02-03T22:24:24.748Z,75.62
2018-02-03T22:26:53.016Z,75.79
2018-02-03T22:29:21.302Z,76.11
2018-02-03T22:31:49.578Z,75.77
2018-02-03T22:34:22.691Z,73.75
2018-02-03T22:37:15.613Z,73.23
2018-02-03T22:39:56.780Z,73.73
2018-02-03T22:42:25.057Z,73.92
2018-02-03T22:44:53.311Z,74.75
2018-02-03T22:47:25.774Z,74.79
2018-02-03T22:49:54.001Z,75.50
2018-02-03T22:52:22.267Z,75.01
2018-02-03T22:54:52.194Z,75.29
2018-02-03T22:57:20.470Z,74.60
2018-02-03T22:59:48.735Z,74.73
2018-02-03T23:02:22.469Z,76.43
2018-02-03T23:07:59.449Z,76.08
2018-02-03T23:10:28.168Z,77.78
2018-02-03T23:12:58.391Z,76.88
2018-02-03T23:15:26.681Z,77.26
2018-02-03T23:17:56.861Z,78.40
2018-02-03T23:20:25.120Z,79.68
2018-02-03T23:22:53.401Z,79.57
2018-02-03T23:25:31.763Z,79.11
2018-02-03T23:28:19.268Z,79.23
2018-02-03T23:31:13.240Z,78.94
2018-02-03T23:33:47.250Z,79.44
2018-02-03T23:36:16.292Z,80.30
2018-02-03T23:38:44.557Z,79.48
2018-02-03T23:41:40.323Z,79.67
2018-02-03T23:44:08.613Z,80.77
2018-02-03T23:46:36.893Z,80.89
2018-02-03T23:49:05.155Z,79.62
2018-02-03T23:51:33.428Z,78.55
2018-02-03T23:54:02.450Z,78.25
2018-02-03T23:56:54.137Z,79.19
2018-02-03T23:59:22.413Z,80.02
